Time;durP1;ratioP1;P1;durP2;ratioP2;P2;SDS_P1;SDS_P2;PMS_P1;PMS_P2;Temp;Humidity;BMP_temperature;BMP_pressure;BME280_temperature;BME280_humidity;BME280_pressure;Samples;Min_cycle;Max_cycle;Signal;HPM_P1;HPM_P2
2022/10/10 00:07:12;;;;;;;7.20;4.57;;;8.80;99.90;;;;;;5441412;23;20052;-82
2022/10/10 00:09:38;;;;;;;7.82;4.25;;;8.70;99.90;;;;;;4903421;29;20056;-81
2022/10/10 00:12:04;;;;;;;9.40;4.72;;;8.70;99.90;;;;;;4903382;29;20048;-81
2022/10/10 00:14:29;;;;;;;6.97;4.78;;;8.70;99.90;;;;;;4903450;29;20063;-81
2022/10/10 01:49:04;;;;;;;8.55;5.63;;;8.10;99.90;;;;;;5181904;23;20056;-81
2022/10/10 01:52:11;;;;;;;10.98;5.88;;;8.10;99.90;;;;;;4920166;29;20067;-81
2022/10/10 01:54:53;;;;;;;9.80;6.22;;;8.10;99.90;;;;;;4921153;29;20111;-82
2022/10/10 01:57:34;;;;;;;8.20;5.77;;;8.10;99.90;;;;;;4920522;29;20052;-81
2022/10/10 02:00:08;;;;;;;9.18;5.43;;;8.10;99.90;;;;;;4920302;29;20058;-82
2022/10/10 02:02:52;;;;;;;8.85;5.72;;;8.10;99.90;;;;;;4920459;29;20055;-81
2022/10/10 02:05:41;;;;;;;8.73;5.22;;;8.10;99.90;;;;;;4919957;29;20082;-82
2022/10/10 02:08:13;;;;;;;9.15;6.07;;;8.10;99.90;;;;;;4920162;29;20060;-81
2022/10/10 04:25:23;;;;;;;10.40;7.28;;;7.60;99.90;;;;;;5919647;23;20027;-82
2022/10/10 04:27:49;;;;;;;10.82;7.18;;;7.60;99.90;;;;;;4921855;29;20055;-81
2022/10/10 04:30:15;;;;;;;12.68;7.60;;;7.60;99.90;;;;;;4921408;29;20055;-81
2022/10/10 04:32:41;;;;;;;11.50;7.70;;;7.60;99.90;;;;;;4922226;29;20058;-82
2022/10/10 05:44:41;;;;;;;12.60;7.75;;;7.60;99.90;;;;;;6080801;23;20093;-82
2022/10/10 05:47:09;;;;;;;10.20;7.40;;;7.70;99.90;;;;;;4914608;29;20060;-82
2022/10/10 05:49:35;;;;;;;12.15;7.75;;;7.70;99.90;;;;;;4900281;29;20048;-82
2022/10/10 05:52:01;;;;;;;14.23;8.00;;;7.70;99.90;;;;;;4900518;29;20139;-82
2022/10/10 05:54:27;;;;;;;15.55;8.15;;;7.70;99.90;;;;;;4900469;29;20048;-81
2022/10/10 05:56:53;;;;;;;10.98;7.70;;;7.70;99.90;;;;;;4900379;29;20040;-82
2022/10/10 05:59:18;;;;;;;15.60;8.60;;;7.70;99.90;;;;;;4917379;29;20468;-82
2022/10/10 06:01:44;;;;;;;13.80;8.43;;;7.70;99.90;;;;;;4900578;29;20048;-84
2022/10/10 06:04:10;;;;;;;12.45;7.57;;;7.80;99.90;;;;;;4900450;29;20131;-82
2022/10/10 06:06:35;;;;;;;14.35;8.10;;;7.80;99.90;;;;;;4917021;29;20052;-82
2022/10/10 06:09:01;;;;;;;14.40;8.68;;;7.80;99.90;;;;;;4900131;29;20063;-80
2022/10/10 06:11:28;;;;;;;10.57;7.65;;;7.80;99.90;;;;;;4900104;29;20048;-80
2022/10/10 06:13:54;;;;;;;14.07;8.13;;;7.80;99.90;;;;;;4900385;29;20058;-80
2022/10/10 06:16:24;;;;;;;11.90;7.65;;;7.80;99.90;;;;;;4900172;29;20048;-81
2022/10/10 06:18:51;;;;;;;12.15;8.52;;;7.80;99.90;;;;;;4900329;29;20052;-80
2022/10/10 06:21:17;;;;;;;12.52;8.27;;;7.80;99.90;;;;;;4897532;29;20052;-80
2022/10/10 06:23:43;;;;;;;15.52;8.35;;;7.80;99.90;;;;;;4889598;29;20056;-80
2022/10/10 06:26:09;;;;;;;12.27;7.53;;;7.90;99.90;;;;;;4885098;29;20079;-79
2022/10/10 06:28:35;;;;;;;12.20;8.25;;;7.90;99.90;;;;;;4901785;29;20044;-80
2022/10/10 06:31:07;;;;;;;11.55;8.02;;;7.90;99.90;;;;;;4901772;29;20044;-80
2022/10/10 07:35:55;;;;;;;12.68;7.80;;;9.10;99.90;;;;;;6267329;22;1269691;-79
2022/10/10 07:38:21;;;;;;;13.95;8.00;;;9.20;99.90;;;;;;6314910;22;20353;-79
2022/10/10 07:40:47;;;;;;;13.30;7.95;;;9.20;99.90;;;;;;6314769;22;20038;-79
2022/10/10 07:43:13;;;;;;;11.70;8.60;;;9.40;99.90;;;;;;6314782;22;20019;-80
2022/10/10 07:45:38;;;;;;;13.90;8.85;;;9.50;99.90;;;;;;6314745;22;20447;-79
2022/10/10 07:48:04;;;;;;;11.73;8.57;;;9.60;99.90;;;;;;6314805;22;20022;-78
2022/10/10 07:50:30;;;;;;;12.85;7.85;;;9.80;99.90;;;;;;6316867;22;20022;-80
2022/10/10 07:52:55;;;;;;;11.32;7.90;;;9.90;99.90;;;;;;6314851;22;20094;-80
2022/10/10 07:55:21;;;;;;;13.02;8.18;;;10.00;99.90;;;;;;6314673;22;20094;-80
2022/10/10 07:57:47;;;;;;;14.13;7.53;;;10.10;99.90;;;;;;6314790;22;20019;-81
2022/10/10 08:00:14;;;;;;;11.57;8.07;;;10.20;99.90;;;;;;6316623;22;20011;-80
2022/10/10 08:02:39;;;;;;;12.30;8.07;;;10.40;99.90;;;;;;6314803;22;20334;-80
2022/10/10 08:05:05;;;;;;;12.43;7.95;;;10.50;99.90;;;;;;6314381;22;20014;-79
2022/10/10 08:07:31;;;;;;;10.90;7.70;;;10.70;99.90;;;;;;6314765;22;20019;-80
2022/10/10 08:10:07;;;;;;;11.65;8.18;;;10.80;99.90;;;;;;6314326;22;20011;-82
2022/10/10 08:12:32;;;;;;;14.15;8.63;;;10.90;99.90;;;;;;6314608;22;20101;-82
2022/10/10 08:14:59;;;;;;;11.40;7.70;;;11.00;99.90;;;;;;6314304;22;20053;-80
2022/10/10 08:27:51;;;;;;;11.52;7.72;;;11.20;99.90;;;;;;6278387;22;20046;-80
2022/10/10 09:17:22;;;;;;;12.77;7.68;;;12.50;99.90;;;;;;6322664;22;20085;-80
2022/10/10 09:19:57;;;;;;;;;;;12.60;99.90;;;;;;6282033;22;20030;-81
2022/10/10 09:22:28;;;;;;;12.43;8.82;;;12.70;99.90;;;;;;6308131;22;19934;-81
2022/10/10 09:25:20;;;;;;;12.45;8.77;;;12.80;99.90;;;;;;6281037;22;20019;-83
2022/10/10 09:28:04;;;;;;;14.98;8.43;;;12.90;99.90;;;;;;6227304;22;20054;-80
2022/10/10 09:30:33;;;;;;;11.52;8.45;;;12.90;99.90;;;;;;6280150;22;20047;-81
2022/10/10 09:33:25;;;;;;;11.82;8.38;;;12.80;99.90;;;;;;6308312;22;20015;-81
2022/10/10 09:36:03;;;;;;;11.15;8.63;;;12.80;99.90;;;;;;6308678;22;20096;-80
2022/10/10 09:38:34;;;;;;;14.00;8.35;;;12.90;99.90;;;;;;6280962;22;20017;-80
2022/10/10 09:41:27;;;;;;;16.67;8.75;;;13.00;99.90;;;;;;6280801;22;20016;-80
2022/10/10 09:43:58;;;;;;;10.93;8.93;;;13.20;99.90;;;;;;6268082;22;20392;-80
2022/10/10 09:46:26;;;;;;;11.98;8.57;;;13.30;99.90;;;;;;6293875;22;20327;-80
2022/10/10 11:01:39;;;;;;;13.32;8.35;;;14.60;99.90;;;;;;6334878;22;20023;-79
2022/10/10 11:04:43;;;;;;;12.52;8.55;;;14.60;99.90;;;;;;6337549;22;20022;-78
2022/10/10 11:07:15;;;;;;;12.20;8.43;;;14.50;99.90;;;;;;6274199;22;20098;-79
2022/10/10 11:10:00;;;;;;;17.17;9.68;;;14.50;99.90;;;;;;6337482;22;20011;-79
2022/10/10 11:12:48;;;;;;;13.10;8.95;;;14.50;99.90;;;;;;6337457;22;20446;-78
2022/10/10 11:15:22;;;;;;;17.05;8.55;;;14.50;99.90;;;;;;6337103;22;20019;-79
2022/10/10 11:17:59;;;;;;;16.17;9.02;;;14.50;99.90;;;;;;6336560;22;20316;-79
2022/10/10 11:20:40;;;;;;;13.23;8.45;;;14.50;99.90;;;;;;6334827;22;20022;-78
2022/10/10 12:12:26;;;;;;;16.55;9.63;;;15.00;99.90;;;;;;6335885;22;20019;-80
2022/10/10 12:14:55;;;;;;;14.30;9.27;;;14.90;99.90;;;;;;6338756;22;20093;-83
2022/10/10 12:17:25;;;;;;;20.08;11.15;;;14.90;99.90;;;;;;6338830;22;20022;-82
2022/10/10 12:19:51;;;;;;;18.33;10.55;;;14.80;99.90;;;;;;6338751;22;20046;-82
2022/10/10 12:22:23;;;;;;;19.10;9.85;;;14.70;99.90;;;;;;6338867;22;20050;-81
2022/10/10 12:25:23;;;;;;;14.63;9.60;;;14.60;99.90;;;;;;6338784;22;20010;-82
2022/10/10 12:28:21;;;;;;;14.93;9.50;;;14.50;99.90;;;;;;6338664;22;20245;-82
2022/10/10 12:30:55;;;;;;;14.32;8.60;;;14.50;99.90;;;;;;6339116;22;20019;-82
2022/10/10 12:33:43;;;;;;;12.63;8.10;;;14.40;99.90;;;;;;6338638;22;20018;-83
2022/10/10 12:36:18;;;;;;;13.85;8.80;;;14.40;99.90;;;;;;6339784;22;20010;-82
2022/10/10 12:39:02;;;;;;;14.88;9.25;;;14.40;99.90;;;;;;6338276;22;20597;-79
2022/10/10 12:41:46;;;;;;;18.30;9.25;;;14.30;99.90;;;;;;6324126;22;20022;-81
2022/10/10 12:44:33;;;;;;;9.20;5.30;;;14.20;99.90;;;;;;6338260;22;20014;-82
2022/10/10 12:47:14;;;;;;;7.90;3.38;;;14.10;99.90;;;;;;6338120;22;20346;-81
2022/10/10 12:49:54;;;;;;;9.27;2.47;;;14.00;99.90;;;;;;6338318;22;20053;-82
2022/10/10 12:52:44;;;;;;;10.43;2.13;;;13.80;99.90;;;;;;6338220;22;20438;-82
2022/10/10 12:55:22;;;;;;;8.43;2.20;;;13.70;99.90;;;;;;6338047;22;20015;-82
2022/10/10 12:57:50;;;;;;;13.57;4.40;;;13.60;99.90;;;;;;6340177;22;20080;-83
2022/10/10 13:00:18;;;;;;;12.00;2.88;;;13.60;99.90;;;;;;6338390;22;20015;-83
2022/10/10 13:02:49;;;;;;;17.83;4.25;;;13.60;99.90;;;;;;6338310;22;20015;-84
2022/10/10 13:05:20;;;;;;;12.18;2.10;;;13.70;99.90;;;;;;6338227;22;20036;-84
2022/10/10 13:07:48;;;;;;;10.73;2.00;;;13.60;99.90;;;;;;6338172;22;20019;-83
2022/10/10 13:10:25;;;;;;;10.23;1.63;;;13.50;99.90;;;;;;6339663;22;20026;-81
2022/10/10 13:13:15;;;;;;;15.50;2.30;;;13.40;99.90;;;;;;6339803;22;20011;-82
2022/10/10 13:15:51;;;;;;;11.43;3.17;;;13.30;99.90;;;;;;6338361;22;20086;-84
2022/10/10 13:18:36;;;;;;;11.68;2.40;;;13.30;99.90;;;;;;6339864;22;20089;-83
2022/10/10 13:21:04;;;;;;;16.23;2.40;;;13.20;99.90;;;;;;6339713;22;20505;-84
2022/10/10 13:23:29;;;;;;;10.05;1.98;;;13.00;99.90;;;;;;6340878;22;20064;-83
2022/10/10 13:25:55;;;;;;;7.90;2.03;;;13.00;99.90;;;;;;6337841;22;20006;-83
2022/10/10 13:28:21;;;;;;;13.25;3.15;;;12.90;99.90;;;;;;6338412;22;20015;-83
2022/10/10 13:30:48;;;;;;;10.82;2.78;;;12.80;99.90;;;;;;6338110;22;20007;-82
2022/10/10 13:33:20;;;;;;;10.93;2.78;;;12.80;99.90;;;;;;6340019;22;20018;-82
2022/10/10 13:35:48;;;;;;;8.43;2.10;;;12.80;99.90;;;;;;6337094;22;20025;-81
2022/10/10 13:38:15;;;;;;;10.05;1.60;;;12.70;99.90;;;;;;6336954;22;20093;-82
2022/10/10 13:40:42;;;;;;;14.45;2.33;;;12.80;99.90;;;;;;6338150;22;20018;-81
2022/10/10 13:43:18;;;;;;;16.48;1.60;;;12.70;99.90;;;;;;6339968;22;20018;-93
2022/10/10 13:46:02;;;;;;;13.23;2.95;;;12.70;99.90;;;;;;6344041;22;20015;-96
2022/10/10 13:48:38;;;;;;;14.38;2.38;;;12.70;99.90;;;;;;6344202;22;20090;-94
2022/10/10 13:51:12;;;;;;;12.30;2.13;;;12.80;99.90;;;;;;6342459;22;20015;-96
2022/10/10 13:53:48;;;;;;;11.98;2.60;;;12.90;99.90;;;;;;6344705;22;20021;-94
2022/10/10 13:56:36;;;;;;;12.63;2.42;;;12.90;99.90;;;;;;6347555;22;20019;-96
2022/10/10 13:59:03;;;;;;;12.13;1.77;;;12.90;99.90;;;;;;6338373;22;20019;-90
2022/10/10 14:01:46;;;;;;;15.23;2.35;;;13.00;99.90;;;;;;6338763;22;20076;-93
2022/10/10 14:04:12;;;;;;;15.60;2.30;;;13.10;99.90;;;;;;6341535;22;20025;-92
2022/10/10 14:06:59;;;;;;;16.17;3.08;;;13.10;99.90;;;;;;6340324;22;20019;-86
2022/10/10 14:09:27;;;;;;;20.40;2.17;;;13.20;99.90;;;;;;6324124;22;20458;-95
2022/10/10 14:12:00;;;;;;;13.45;2.67;;;13.20;99.90;;;;;;6279174;22;20340;-91
2022/10/10 14:14:47;;;;;;;;;;;13.30;99.90;;;;;;6301320;22;20041;-82
2022/10/10 14:17:27;;;;;;;15.23;2.17;;;13.30;99.90;;;;;;6275536;22;20290;-82
2022/10/10 14:20:01;;;;;;;16.48;2.13;;;13.40;99.90;;;;;;6301103;22;20039;-83
2022/10/10 14:22:32;;;;;;;17.65;3.33;;;13.50;99.90;;;;;;6301461;22;20015;-82
2022/10/10 14:24:58;;;;;;;12.38;1.98;;;13.70;99.90;;;;;;6277011;22;20019;-83
2022/10/10 14:27:25;;;;;;;14.82;2.17;;;13.70;99.90;;;;;;6275270;22;20015;-83
2022/10/10 14:29:55;;;;;;;14.90;2.25;;;13.60;99.90;;;;;;6300995;22;20015;-83
2022/10/10 14:32:22;;;;;;;12.52;2.22;;;13.70;99.90;;;;;;6275469;22;20029;-81
2022/10/10 14:34:48;;;;;;;13.75;2.55;;;13.70;99.90;;;;;;6301142;22;20043;-82
2022/10/10 14:37:18;;;;;;;21.63;4.40;;;13.80;99.90;;;;;;6301043;22;20023;-82
2022/10/10 14:39:46;;;;;;;15.95;4.43;;;13.80;99.90;;;;;;6275324;22;20060;-80
2022/10/10 14:42:14;;;;;;;19.95;4.40;;;13.70;99.90;;;;;;6275474;22;20023;-84
2022/10/10 14:44:39;;;;;;;12.52;2.95;;;13.70;99.90;;;;;;6275128;22;20046;-81
2022/10/10 14:47:06;;;;;;;11.23;2.38;;;13.80;99.90;;;;;;6276983;22;20419;-82
2022/10/10 14:49:31;;;;;;;17.80;2.92;;;13.70;99.90;;;;;;6276735;22;20012;-83
2022/10/10 14:51:57;;;;;;;12.93;3.42;;;13.70;99.90;;;;;;6276698;22;20026;-81
2022/10/10 14:54:22;;;;;;;19.75;4.07;;;13.60;99.90;;;;;;6274947;22;20374;-79
2022/10/10 14:56:49;;;;;;;16.85;4.00;;;13.60;99.90;;;;;;6274937;22;20023;-80
2022/10/10 14:59:19;;;;;;;16.45;3.65;;;13.60;99.90;;;;;;6276545;22;20157;-82
2022/10/10 15:01:47;;;;;;;10.30;2.40;;;13.60;99.90;;;;;;6275076;22;20012;-79
2022/10/10 15:04:13;;;;;;;15.48;3.63;;;13.60;99.90;;;;;;6300896;22;20015;-82
2022/10/10 15:06:39;;;;;;;17.77;3.92;;;13.70;99.90;;;;;;6276424;22;20031;-83
2022/10/10 15:09:05;;;;;;;16.98;2.80;;;13.70;99.90;;;;;;6274974;22;20047;-82
2022/10/10 15:11:31;;;;;;;18.52;4.00;;;13.70;99.90;;;;;;6275124;22;20028;-82
2022/10/10 15:13:56;;;;;;;16.25;3.03;;;13.70;99.90;;;;;;6275172;22;20027;-80
2022/10/10 15:16:22;;;;;;;12.57;2.78;;;13.60;99.90;;;;;;6300746;22;20016;-81
2022/10/10 15:18:48;;;;;;;13.52;3.20;;;13.60;99.90;;;;;;6300918;22;20051;-85
2022/10/10 15:21:14;;;;;;;6.55;1.52;;;13.60;99.90;;;;;;6275034;22;20325;-82
2022/10/10 15:23:40;;;;;;;18.23;2.55;;;13.60;99.90;;;;;;6275494;22;20073;-83
2022/10/10 15:26:06;;;;;;;15.38;2.90;;;13.60;99.90;;;;;;6276849;22;20370;-81
2022/10/10 15:28:32;;;;;;;12.43;2.38;;;13.50;99.90;;;;;;6276562;22;20016;-83
2022/10/10 15:30:58;;;;;;;9.07;2.00;;;13.50;99.90;;;;;;6277110;22;20043;-82
2022/10/10 15:33:24;;;;;;;12.15;2.25;;;13.50;99.90;;;;;;6277047;22;20343;-81
2022/10/10 15:35:57;;;;;;;15.35;2.67;;;13.50;99.90;;;;;;6276965;22;20019;-82
2022/10/10 15:38:23;;;;;;;10.93;2.30;;;13.40;99.90;;;;;;6277133;22;20016;-84
2022/10/10 15:41:00;;;;;;;10.55;2.40;;;13.40;99.90;;;;;;6302807;22;20016;-84
2022/10/10 15:43:26;;;;;;;9.02;2.15;;;13.40;99.90;;;;;;6302925;22;20090;-85
2022/10/10 15:45:52;;;;;;;14.68;2.92;;;13.40;99.90;;;;;;6278285;22;20018;-81
2022/10/10 15:48:19;;;;;;;10.60;3.17;;;13.40;99.90;;;;;;6278678;22;20019;-80
2022/10/10 15:50:45;;;;;;;13.40;3.95;;;13.50;99.90;;;;;;6276781;22;20012;-81
2022/10/10 15:53:11;;;;;;;13.32;2.80;;;13.40;99.90;;;;;;6278337;22;20030;-81
2022/10/10 15:55:41;;;;;;;8.93;2.03;;;13.40;99.90;;;;;;6276937;22;20100;-84
2022/10/10 15:58:07;;;;;;;8.93;2.15;;;13.40;99.90;;;;;;6277191;22;20045;-80
2022/10/10 16:00:36;;;;;;;14.40;3.00;;;13.30;99.90;;;;;;6278308;22;20023;-85
2022/10/10 16:03:02;;;;;;;10.98;2.20;;;13.30;99.90;;;;;;6276758;22;20070;-81
2022/10/10 16:05:28;;;;;;;15.07;2.72;;;13.40;99.90;;;;;;6302583;22;20455;-82
2022/10/10 16:07:54;;;;;;;12.50;2.33;;;13.30;99.90;;;;;;6278078;22;20023;-80
2022/10/10 16:10:19;;;;;;;12.32;3.40;;;13.30;99.90;;;;;;6278202;22;20020;-84
2022/10/10 16:12:45;;;;;;;12.90;4.18;;;13.30;99.90;;;;;;6276805;22;20495;-80
2022/10/10 16:15:11;;;;;;;16.65;3.25;;;13.30;99.90;;;;;;6251095;22;20016;-82
2022/10/10 16:17:36;;;;;;;13.98;2.70;;;13.30;99.90;;;;;;6251352;22;20022;-80
2022/10/10 16:20:02;;;;;;;15.70;2.63;;;13.20;99.90;;;;;;6251072;22;20103;-81
2022/10/10 16:22:27;;;;;;;13.95;2.65;;;13.20;99.90;;;;;;6277924;22;20029;-81
2022/10/10 16:24:54;;;;;;;23.13;4.60;;;13.10;99.90;;;;;;6250808;22;20016;-83
2022/10/10 16:27:20;;;;;;;16.55;3.63;;;13.10;99.90;;;;;;6251239;22;20023;-83
2022/10/10 16:29:46;;;;;;;15.10;3.38;;;13.10;99.90;;;;;;6251185;22;20447;-82
2022/10/10 16:32:11;;;;;;;11.68;2.90;;;13.10;99.90;;;;;;6278303;22;20020;-84
2022/10/10 16:34:37;;;;;;;14.70;3.08;;;13.00;99.90;;;;;;6278475;22;20027;-83
2022/10/10 16:37:02;;;;;;;11.27;3.00;;;13.00;99.90;;;;;;6251576;22;20026;-83
2022/10/10 16:39:28;;;;;;;13.65;3.40;;;12.90;99.90;;;;;;6251519;22;20443;-82
2022/10/10 16:41:54;;;;;;;13.10;4.45;;;12.90;99.90;;;;;;6251449;22;20016;-83
2022/10/10 16:44:19;;;;;;;14.68;3.38;;;12.90;99.90;;;;;;6251591;22;20031;-82
2022/10/10 16:46:45;;;;;;;12.98;2.85;;;12.90;99.90;;;;;;6279183;22;20019;-81
2022/10/10 16:49:13;;;;;;;11.38;3.30;;;12.80;99.90;;;;;;6278237;22;20451;-82
2022/10/10 16:51:38;;;;;;;11.88;3.17;;;12.80;99.90;;;;;;6276555;22;20022;-82
2022/10/10 17:47:06;;;;;;;15.70;4.05;;;12.70;99.90;;;;;;6312921;22;20022;-80
2022/10/10 17:49:37;;;;;;;17.10;4.32;;;12.70;99.90;;;;;;6338738;22;20015;-81
2022/10/10 17:52:02;;;;;;;17.67;5.35;;;12.70;99.90;;;;;;6338259;22;20390;-83
2022/10/10 17:54:28;;;;;;;12.32;3.58;;;12.70;99.90;;;;;;6338235;22;20014;-85
2022/10/10 17:56:54;;;;;;;13.52;3.47;;;12.70;99.90;;;;;;6338435;22;20019;-81
2022/10/10 17:59:19;;;;;;;12.85;4.45;;;12.70;99.90;;;;;;6339703;22;20023;-81
2022/10/10 18:01:45;;;;;;;12.15;3.67;;;12.80;99.90;;;;;;6339881;22;20015;-82
2022/10/10 18:04:13;;;;;;;14.27;3.65;;;12.70;99.90;;;;;;6337852;22;20019;-81
2022/10/10 18:06:40;;;;;;;13.55;3.63;;;12.70;99.90;;;;;;6339334;22;20342;-82
2022/10/10 18:09:06;;;;;;;14.25;3.60;;;12.70;99.90;;;;;;6338117;22;20011;-80
2022/10/10 18:11:32;;;;;;;14.05;3.33;;;12.70;99.90;;;;;;6339780;22;20042;-81
2022/10/10 20:28:47;;;;;;;10.60;2.65;;;12.60;99.90;;;;;;6335642;22;20019;-81
2022/10/10 20:31:25;;;;;;;15.00;2.85;;;12.50;99.90;;;;;;6339632;22;20015;-80
2022/10/10 20:33:53;;;;;;;14.60;2.55;;;12.50;99.90;;;;;;6339461;22;20349;-80
2022/10/10 20:36:23;;;;;;;13.45;2.95;;;12.50;99.90;;;;;;6339943;22;20040;-79
2022/10/10 23:08:38;;;;;;;8.68;1.65;;;12.40;99.90;;;;;;6334825;22;20022;-81
